Time;durP1;ratioP1;P1;durP2;ratioP2;P2;SDS_P1;SDS_P2;PMS_P1;PMS_P2;Temp;Humidity;BMP_temperature;BMP_pressure;BME280_temperature;BME280_humidity;BME280_pressure;Samples;Min_cycle;Max_cycle;Signal;HPM_P1;HPM_P2
2021/03/26 00:01:53;;;;;;;;;29.50;23.25;;;;;;;;3725577;37;21174;-56
2021/03/26 00:04:18;;;;;;;;;37.00;29.25;;;;;;;;3724930;37;21169;-56
2021/03/26 00:06:47;;;;;;;;;36.00;29.00;;;;;;;;3724560;37;21193;-56
2021/03/26 00:09:14;;;;;;;;;34.50;28.50;;;;;;;;3724733;37;18267;-55
2021/03/26 00:11:41;;;;;;;;;30.50;27.00;;;;;;;;3725134;38;21165;-57
2021/03/26 00:14:06;;;;;;;;;33.25;27.00;;;;;;;;3725202;38;21174;-55
2021/03/26 00:16:34;;;;;;;;;31.50;26.50;;;;;;;;3725184;37;21170;-57
2021/03/26 00:19:00;;;;;;;;;29.25;27.00;;;;;;;;3725350;38;18270;-58
2021/03/26 00:21:25;;;;;;;;;34.50;26.75;;;;;;;;3725110;37;21161;-54
2021/03/26 00:23:53;;;;;;;;;33.75;27.00;;;;;;;;3725124;38;18279;-56
2021/03/26 00:26:19;;;;;;;;;35.00;31.25;;;;;;;;3725223;37;18261;-56
2021/03/26 00:28:46;;;;;;;;;40.50;29.25;;;;;;;;3725173;37;21158;-54
2021/03/26 00:31:12;;;;;;;;;35.50;26.50;;;;;;;;3724604;37;21490;-57
2021/03/26 00:33:38;;;;;;;;;26.25;23.25;;;;;;;;3725059;37;21144;-57
2021/03/26 00:36:04;;;;;;;;;42.25;36.75;;;;;;;;3725096;37;18241;-56
2021/03/26 00:38:30;;;;;;;;;30.25;22.50;;;;;;;;3725089;37;21149;-57
2021/03/26 00:40:57;;;;;;;;;37.25;30.00;;;;;;;;3725092;37;21152;-57
2021/03/26 00:43:23;;;;;;;;;30.75;27.25;;;;;;;;3725195;37;21143;-59
2021/03/26 00:45:50;;;;;;;;;43.25;34.75;;;;;;;;3725130;37;21140;-56
2021/03/26 00:48:16;;;;;;;;;49.25;37.25;;;;;;;;3725179;38;21158;-58
2021/03/26 00:50:44;;;;;;;;;48.00;37.50;;;;;;;;3725128;38;21139;-57
2021/03/26 00:53:30;;;;;;;;;37.50;28.50;;;;;;;;3725058;37;21120;-57
2021/03/26 00:55:56;;;;;;;;;49.25;39.50;;;;;;;;3724953;38;21174;-57
2021/03/26 00:58:21;;;;;;;;;57.50;40.50;;;;;;;;3724913;38;21108;-59
2021/03/26 01:00:49;;;;;;;;;60.25;42.75;;;;;;;;3724605;38;18212;-58
2021/03/26 01:03:15;;;;;;;;;53.75;42.00;;;;;;;;3724402;38;21114;-59
2021/03/26 01:05:42;;;;;;;;;41.50;36.00;;;;;;;;3724925;38;21109;-57
2021/03/26 01:08:08;;;;;;;;;53.00;40.75;;;;;;;;3724999;38;21100;-57
2021/03/26 01:10:44;;;;;;;;;28.00;24.50;;;;;;;;3725049;38;21187;-58
2021/03/26 01:13:10;;;;;;;;;45.75;39.00;;;;;;;;3725197;37;18180;-58
2021/03/26 01:15:36;;;;;;;;;45.75;32.75;;;;;;;;3725078;38;21085;-56
2021/03/26 01:18:04;;;;;;;;;42.25;34.00;;;;;;;;3725127;37;18181;-59
2021/03/26 01:20:31;;;;;;;;;50.50;36.25;;;;;;;;3725265;38;21076;-59
2021/03/26 01:22:57;;;;;;;;;33.75;26.50;;;;;;;;3725068;37;21081;-59
2021/03/26 01:25:29;;;;;;;;;35.00;31.50;;;;;;;;3725077;38;21074;-56
2021/03/26 01:27:57;;;;;;;;;42.00;34.25;;;;;;;;3725210;38;21068;-58
2021/03/26 01:30:23;;;;;;;;;37.00;34.50;;;;;;;;3724743;38;21075;-59
2021/03/26 01:32:49;;;;;;;;;37.75;31.50;;;;;;;;3724988;37;21077;-56
2021/03/26 01:35:15;;;;;;;;;25.25;22.75;;;;;;;;3724969;37;21081;-58
2021/03/26 01:37:42;;;;;;;;;35.50;25.75;;;;;;;;3725018;38;21072;-57
2021/03/26 01:40:09;;;;;;;;;38.25;33.00;;;;;;;;3724630;37;21059;-57
2021/03/26 01:42:35;;;;;;;;;35.75;27.25;;;;;;;;3725091;37;21062;-59
2021/03/26 01:45:03;;;;;;;;;36.50;29.50;;;;;;;;3725032;37;21041;-56
2021/03/26 01:47:29;;;;;;;;;24.25;23.75;;;;;;;;3725052;38;21058;-59
2021/03/26 01:49:55;;;;;;;;;25.50;20.75;;;;;;;;3725078;38;21039;-57
2021/03/26 01:52:20;;;;;;;;;21.75;17.75;;;;;;;;3725056;37;18152;-59
2021/03/26 01:54:46;;;;;;;;;21.00;15.50;;;;;;;;3725055;37;21037;-58
2021/03/26 01:57:12;;;;;;;;;23.00;22.00;;;;;;;;3725007;38;18145;-57
2021/03/26 01:59:40;;;;;;;;;24.00;19.00;;;;;;;;3725137;38;18150;-57
2021/03/26 02:02:09;;;;;;;;;21.25;20.75;;;;;;;;3724995;37;21011;-57
2021/03/26 02:04:38;;;;;;;;;21.25;20.75;;;;;;;;3724694;37;21205;-56
2021/03/26 02:07:04;;;;;;;;;23.25;22.25;;;;;;;;3725247;37;21001;-56
2021/03/26 02:09:33;;;;;;;;;31.50;29.00;;;;;;;;3724989;37;21031;-56
2021/03/26 02:12:01;;;;;;;;;32.25;28.25;;;;;;;;3724622;37;21010;-59
2021/03/26 02:14:39;;;;;;;;;24.50;21.25;;;;;;;;3725118;37;21025;-56
2021/03/26 02:17:24;;;;;;;;;29.50;27.00;;;;;;;;3725082;37;20994;-56
2021/03/26 02:19:54;;;;;;;;;31.75;27.00;;;;;;;;3725097;37;20989;-56
2021/03/26 02:22:23;;;;;;;;;27.50;24.50;;;;;;;;3725141;37;21005;-56
2021/03/26 02:24:49;;;;;;;;;25.25;22.00;;;;;;;;3725100;38;20986;-58
2021/03/26 02:27:35;;;;;;;;;38.25;32.25;;;;;;;;3725061;37;20974;-57
2021/03/26 02:30:07;;;;;;;;;28.50;23.75;;;;;;;;3725590;38;21011;-56
2021/03/26 02:32:34;;;;;;;;;20.50;20.00;;;;;;;;3725428;37;20970;-56
2021/03/26 02:35:38;;;;;;;;;24.75;20.50;;;;;;;;3724625;37;20992;-58
2021/03/26 02:38:08;;;;;;;;;30.75;20.75;;;;;;;;3724962;38;20974;-55
2021/03/26 02:40:41;;;;;;;;;21.00;20.25;;;;;;;;3725324;37;20987;-60
2021/03/26 02:43:25;;;;;;;;;22.75;18.50;;;;;;;;3723562;37;20968;-57
2021/03/26 02:46:19;;;;;;;;;25.25;21.75;;;;;;;;3722642;37;20966;-59
2021/03/26 02:48:49;;;;;;;;;23.50;19.75;;;;;;;;3724326;37;20980;-58
2021/03/26 02:51:19;;;;;;;;;22.25;18.25;;;;;;;;3723664;37;20962;-56
2021/03/26 02:53:54;;;;;;;;;20.25;17.75;;;;;;;;3723617;37;20934;-60
2021/03/26 02:56:35;;;;;;;;;18.50;18.00;;;;;;;;3723966;38;21125;-58
2021/03/26 02:59:21;;;;;;;;;19.25;17.25;;;;;;;;3723982;38;20950;-57
2021/03/26 03:01:57;;;;;;;;;19.25;17.50;;;;;;;;3723887;37;20973;-56
2021/03/26 03:04:33;;;;;;;;;27.00;23.25;;;;;;;;3724238;38;20929;-57
2021/03/26 03:07:10;;;;;;;;;25.00;20.00;;;;;;;;3723116;38;20955;-58
2021/03/26 03:09:38;;;;;;;;;23.00;21.50;;;;;;;;3724480;38;21246;-59
2021/03/26 03:12:06;;;;;;;;;23.75;19.25;;;;;;;;3724526;38;20953;-58
2021/03/26 03:14:36;;;;;;;;;21.25;21.25;;;;;;;;3724744;38;20909;-58
2021/03/26 03:17:16;;;;;;;;;27.50;19.75;;;;;;;;3724672;38;20925;-59
2021/03/26 03:20:05;;;;;;;;;25.50;18.75;;;;;;;;3724746;37;20932;-59
2021/03/26 03:22:39;;;;;;;;;21.75;20.75;;;;;;;;3725034;38;21243;-57
2021/03/26 03:25:09;;;;;;;;;28.25;22.75;;;;;;;;3724526;38;21113;-57
2021/03/26 03:28:03;;;;;;;;;25.75;20.50;;;;;;;;3724771;37;20924;-56
2021/03/26 03:30:40;;;;;;;;;19.00;14.50;;;;;;;;3725162;37;20911;-56
2021/03/26 03:33:15;;;;;;;;;25.00;23.00;;;;;;;;3724660;37;20887;-58
2021/03/26 03:35:46;;;;;;;;;20.75;17.50;;;;;;;;3724138;38;20893;-58
2021/03/26 03:38:34;;;;;;;;;28.25;22.75;;;;;;;;3725097;37;20891;-57
2021/03/26 03:41:28;;;;;;;;;24.00;19.75;;;;;;;;3725042;37;20952;-57
2021/03/26 03:44:17;;;;;;;;;21.75;20.00;;;;;;;;3724922;38;21045;-58
2021/03/26 03:46:55;;;;;;;;;28.00;22.75;;;;;;;;3724744;38;20909;-58
2021/03/26 03:49:30;;;;;;;;;20.50;18.25;;;;;;;;3724627;37;20928;-53
2021/03/26 03:52:27;;;;;;;;;27.50;24.25;;;;;;;;3725158;37;20870;-58
2021/03/26 03:55:07;;;;;;;;;23.50;21.50;;;;;;;;3724707;38;20897;-51
2021/03/26 03:57:37;;;;;;;;;23.75;22.25;;;;;;;;3725139;37;20851;-54
2021/03/26 04:00:09;;;;;;;;;24.00;18.00;;;;;;;;3724780;37;20850;-57
2021/03/26 04:02:46;;;;;;;;;25.00;24.50;;;;;;;;3725060;38;20837;-56
2021/03/26 04:05:16;;;;;;;;;28.25;23.75;;;;;;;;3725206;37;20851;-57
2021/03/26 04:07:46;;;;;;;;;30.50;22.50;;;;;;;;3725356;37;20838;-56
2021/03/26 04:10:13;;;;;;;;;29.50;25.25;;;;;;;;3725441;37;21035;-56
2021/03/26 04:12:40;;;;;;;;;27.50;23.25;;;;;;;;3725362;37;20843;-57
2021/03/26 04:15:16;;;;;;;;;29.25;26.50;;;;;;;;3725203;38;20857;-57
2021/03/26 04:18:07;;;;;;;;;32.25;26.25;;;;;;;;3725286;37;20833;-57
2021/03/26 04:20:39;;;;;;;;;31.50;30.25;;;;;;;;3725256;38;20861;-55
2021/03/26 04:23:07;;;;;;;;;27.75;22.75;;;;;;;;3725193;38;20845;-58
2021/03/26 04:25:35;;;;;;;;;40.00;35.00;;;;;;;;3725385;38;20826;-56
2021/03/26 04:28:07;;;;;;;;;28.75;27.00;;;;;;;;3725512;37;20817;-57
2021/03/26 04:30:40;;;;;;;;;25.00;22.75;;;;;;;;3725337;37;20825;-58
2021/03/26 04:33:06;;;;;;;;;36.75;29.75;;;;;;;;3725411;37;20831;-60
2021/03/26 04:35:32;;;;;;;;;40.50;32.50;;;;;;;;3725087;38;20832;-57
2021/03/26 04:38:19;;;;;;;;;41.50;37.75;;;;;;;;3725009;37;20813;-58
2021/03/26 04:40:50;;;;;;;;;47.25;39.50;;;;;;;;3724757;38;20828;-60
2021/03/26 04:43:20;;;;;;;;;52.25;39.25;;;;;;;;3723597;37;20809;-56
2021/03/26 04:45:57;;;;;;;;;46.00;37.75;;;;;;;;3724204;38;20878;-57
2021/03/26 04:48:32;;;;;;;;;59.25;47.75;;;;;;;;3724402;37;20808;-58
2021/03/26 04:51:04;;;;;;;;;65.00;48.00;;;;;;;;3724923;37;20823;-57
2021/03/26 04:53:36;;;;;;;;;64.00;47.25;;;;;;;;3725106;37;20777;-57
2021/03/26 04:56:04;;;;;;;;;61.00;46.25;;;;;;;;3725107;38;20806;-59
2021/03/26 04:58:32;;;;;;;;;63.00;50.00;;;;;;;;3725110;37;20798;-59
2021/03/26 05:01:07;;;;;;;;;61.00;49.00;;;;;;;;3723396;38;20798;-58
2021/03/26 05:03:34;;;;;;;;;62.50;44.50;;;;;;;;3724330;38;20806;-58
2021/03/26 05:06:13;;;;;;;;;66.00;50.25;;;;;;;;3725003;38;20794;-57
2021/03/26 05:08:42;;;;;;;;;60.00;45.00;;;;;;;;3725089;38;20781;-57
2021/03/26 05:11:09;;;;;;;;;34.50;32.75;;;;;;;;3724789;38;20774;-59
2021/03/26 05:13:41;;;;;;;;;43.50;35.00;;;;;;;;3724916;37;20773;-53
2021/03/26 05:16:10;;;;;;;;;42.75;37.25;;;;;;;;3724699;38;20759;-53
2021/03/26 05:18:41;;;;;;;;;49.00;36.50;;;;;;;;3725167;38;20764;-56
2021/03/26 05:21:11;;;;;;;;;46.00;36.00;;;;;;;;3725783;38;20766;-57
2021/03/26 05:23:42;;;;;;;;;41.00;38.75;;;;;;;;3725443;37;20751;-57
2021/03/26 05:26:08;;;;;;;;;55.75;42.50;;;;;;;;3724906;38;20763;-55
2021/03/26 05:28:37;;;;;;;;;47.75;39.25;;;;;;;;3725812;37;20824;-56
2021/03/26 05:31:08;;;;;;;;;41.50;35.50;;;;;;;;3726081;38;17856;-57
2021/03/26 05:33:38;;;;;;;;;48.75;40.75;;;;;;;;3726045;37;20752;-57
2021/03/26 05:36:24;;;;;;;;;40.75;36.50;;;;;;;;3723550;37;20746;-57
2021/03/26 05:39:02;;;;;;;;;47.75;39.25;;;;;;;;3725208;37;20758;-56
2021/03/26 05:41:51;;;;;;;;;41.50;39.75;;;;;;;;3725357;37;20736;-56
2021/03/26 05:44:36;;;;;;;;;41.50;38.25;;;;;;;;3724739;37;20736;-56
2021/03/26 05:47:24;;;;;;;;;59.75;42.50;;;;;;;;3724179;38;20781;-60
2021/03/26 05:50:08;;;;;;;;;52.25;43.00;;;;;;;;3725082;38;20714;-60
2021/03/26 05:52:56;;;;;;;;;60.75;45.25;;;;;;;;3725013;38;20736;-59
2021/03/26 05:55:33;;;;;;;;;49.00;40.75;;;;;;;;3724868;38;20701;-59
2021/03/26 05:58:19;;;;;;;;;51.25;39.25;;;;;;;;3724975;37;20818;-60
2021/03/26 06:00:59;;;;;;;;;59.00;45.50;;;;;;;;3725125;38;20703;-60
2021/03/26 06:03:48;;;;;;;;;52.25;39.75;;;;;;;;3724543;37;20698;-60
2021/03/26 06:06:30;;;;;;;;;44.00;37.25;;;;;;;;3724936;38;20696;-60
2021/03/26 06:09:28;;;;;;;;;50.25;42.25;;;;;;;;3724005;37;20701;-62
2021/03/26 06:12:20;;;;;;;;;49.75;41.25;;;;;;;;3723169;38;20678;-60
2021/03/26 06:15:04;;;;;;;;;49.00;41.50;;;;;;;;3724845;37;20722;-61
2021/03/26 06:17:52;;;;;;;;;55.50;43.00;;;;;;;;3724824;37;20704;-63
2021/03/26 06:20:44;;;;;;;;;56.75;43.75;;;;;;;;3724948;37;20702;-60
2021/03/26 06:23:20;;;;;;;;;31.75;31.25;;;;;;;;3724610;38;20672;-58
2021/03/26 06:25:54;;;;;;;;;55.50;43.00;;;;;;;;3724483;37;20665;-57
2021/03/26 06:28:27;;;;;;;;;58.00;44.25;;;;;;;;3725053;37;20665;-63
2021/03/26 06:31:05;;;;;;;;;54.75;41.75;;;;;;;;3724956;38;20685;-56
2021/03/26 06:33:54;;;;;;;;;53.25;42.50;;;;;;;;3724977;37;20660;-59
2021/03/26 06:36:42;;;;;;;;;52.00;38.50;;;;;;;;3725134;37;20667;-60
2021/03/26 06:39:30;;;;;;;;;53.75;43.75;;;;;;;;3724636;37;20654;-58
2021/03/26 06:42:10;;;;;;;;;44.00;38.00;;;;;;;;3724945;37;20680;-59
2021/03/26 06:44:49;;;;;;;;;41.00;37.25;;;;;;;;3724533;38;20649;-60
2021/03/26 06:47:33;;;;;;;;;43.50;39.25;;;;;;;;3724677;37;20658;-59
2021/03/26 06:50:17;;;;;;;;;48.50;39.75;;;;;;;;3725253;37;20997;-58
2021/03/26 06:53:11;;;;;;;;;42.00;37.50;;;;;;;;3725170;37;20691;-59
2021/03/26 06:55:55;;;;;;;;;50.00;41.00;;;;;;;;3725378;37;20634;-61
2021/03/26 06:58:41;;;;;;;;;50.00;39.00;;;;;;;;3724051;37;20685;-60
2021/03/26 07:01:30;;;;;;;;;45.25;38.00;;;;;;;;3723133;38;20630;-58
2021/03/26 07:04:28;;;;;;;;;55.00;42.25;;;;;;;;3723493;37;20667;-60
2021/03/26 07:07:12;;;;;;;;;53.50;42.50;;;;;;;;3723201;37;20664;-61
2021/03/26 07:09:49;;;;;;;;;53.50;43.75;;;;;;;;3724294;37;20677;-60
2021/03/26 07:12:33;;;;;;;;;42.25;38.25;;;;;;;;3724859;38;20646;-62
2021/03/26 07:15:06;;;;;;;;;60.75;45.00;;;;;;;;3725194;37;20652;-62
2021/03/26 07:18:01;;;;;;;;;51.75;40.50;;;;;;;;3725335;37;20623;-60
2021/03/26 07:20:53;;;;;;;;;53.25;43.25;;;;;;;;3725071;37;20531;-59
2021/03/26 07:23:47;;;;;;;;;55.25;41.75;;;;;;;;3725090;37;20596;-61
2021/03/26 07:26:23;;;;;;;;;56.25;41.25;;;;;;;;3725109;37;20636;-61
2021/03/26 07:29:03;;;;;;;;;54.50;42.00;;;;;;;;3725209;38;20603;-60
2021/03/26 07:31:39;;;;;;;;;48.50;41.25;;;;;;;;3725213;37;20611;-61
2021/03/26 07:34:28;;;;;;;;;47.50;40.00;;;;;;;;3725226;37;20604;-61
2021/03/26 07:37:08;;;;;;;;;48.75;41.50;;;;;;;;3725179;38;20593;-60
2021/03/26 07:39:46;;;;;;;;;54.25;42.00;;;;;;;;3725181;37;20594;-63
2021/03/26 07:42:32;;;;;;;;;56.50;43.75;;;;;;;;3725170;38;20579;-61
2021/03/26 07:45:23;;;;;;;;;47.50;39.75;;;;;;;;3722818;37;20603;-61
2021/03/26 07:48:09;;;;;;;;;59.75;44.50;;;;;;;;3724326;38;20613;-62
2021/03/26 07:51:09;;;;;;;;;53.50;42.25;;;;;;;;3724670;37;20571;-62
2021/03/26 07:54:10;;;;;;;;;55.75;42.25;;;;;;;;3725302;38;20577;-60
2021/03/26 07:56:55;;;;;;;;;43.50;38.25;;;;;;;;3725092;37;20576;-61
2021/03/26 07:59:40;;;;;;;;;50.75;40.75;;;;;;;;3724086;38;20792;-62
2021/03/26 08:02:28;;;;;;;;;54.50;42.00;;;;;;;;3724941;37;19683;-60
2021/03/26 08:05:11;;;;;;;;;47.00;41.50;;;;;;;;3725030;38;19725;-60
2021/03/26 08:08:05;;;;;;;;;43.00;36.25;;;;;;;;3723775;38;19681;-58
2021/03/26 08:10:37;;;;;;;;;46.50;36.00;;;;;;;;3724940;38;19712;-60
2021/03/26 08:13:26;;;;;;;;;52.00;40.50;;;;;;;;3725357;37;19697;-59
2021/03/26 08:16:10;;;;;;;;;54.00;38.25;;;;;;;;3725605;38;19706;-61
2021/03/26 08:18:58;;;;;;;;;51.75;37.50;;;;;;;;3725566;38;19659;-61
2021/03/26 08:21:32;;;;;;;;;44.25;33.75;;;;;;;;3725537;37;19771;-61
2021/03/26 08:24:16;;;;;;;;;52.00;38.75;;;;;;;;3725388;37;19687;-60
2021/03/26 08:27:04;;;;;;;;;52.25;39.75;;;;;;;;3725019;38;19720;-60
2021/03/26 08:29:40;;;;;;;;;51.50;42.50;;;;;;;;3725251;37;19683;-61
2021/03/26 08:32:31;;;;;;;;;48.00;38.50;;;;;;;;3725413;38;19683;-60
2021/03/26 08:35:14;;;;;;;;;49.75;38.25;;;;;;;;3725454;37;19692;-62
2021/03/26 08:37:58;;;;;;;;;43.00;33.50;;;;;;;;3725359;38;19651;-60
2021/03/26 08:40:31;;;;;;;;;43.00;36.75;;;;;;;;3725388;37;19703;-60
2021/03/26 08:42:57;;;;;;;;;41.00;36.25;;;;;;;;3725520;38;20643;-61
2021/03/26 08:45:30;;;;;;;;;48.25;40.25;;;;;;;;3725064;37;19654;-59
2021/03/26 08:48:14;;;;;;;;;44.75;36.75;;;;;;;;3725118;37;17483;-61
2021/03/26 08:50:47;;;;;;;;;42.75;37.25;;;;;;;;3724902;38;20670;-61
2021/03/26 08:53:21;;;;;;;;;45.75;38.00;;;;;;;;3724911;37;20646;-61
2021/03/26 08:55:56;;;;;;;;;28.00;27.75;;;;;;;;3725124;38;20616;-59
2021/03/26 08:58:40;;;;;;;;;41.00;31.75;;;;;;;;3725066;37;20630;-60
2021/03/26 09:01:39;;;;;;;;;48.25;38.00;;;;;;;;3724497;38;21497;-62
2021/03/26 09:04:30;;;;;;;;;48.25;36.75;;;;;;;;3724853;38;21495;-61
2021/03/26 09:07:22;;;;;;;;;46.25;38.00;;;;;;;;3724931;38;21475;-61
2021/03/26 09:10:13;;;;;;;;;37.75;34.25;;;;;;;;3724802;37;21479;-60
2021/03/26 09:13:02;;;;;;;;;38.25;33.75;;;;;;;;3724922;37;21484;-60
2021/03/26 09:15:44;;;;;;;;;34.00;29.25;;;;;;;;3725129;38;21325;-62
2021/03/26 09:18:41;;;;;;;;;41.00;33.75;;;;;;;;3724625;38;21450;-62
2021/03/26 09:21:14;;;;;;;;;38.50;33.50;;;;;;;;3725069;38;21388;-62
2021/03/26 09:23:48;;;;;;;;;36.00;32.25;;;;;;;;3725084;38;21331;-62
2021/03/26 09:26:35;;;;;;;;;36.00;27.50;;;;;;;;3725118;38;21304;-59
2021/03/26 09:29:11;;;;;;;;;35.00;32.50;;;;;;;;3724911;38;21338;-63
2021/03/26 09:31:44;;;;;;;;;32.50;29.50;;;;;;;;3724725;38;21356;-60
2021/03/26 09:34:19;;;;;;;;;27.75;23.50;;;;;;;;3724948;38;21315;-59
2021/03/26 09:36:47;;;;;;;;;33.75;31.00;;;;;;;;3725028;37;21342;-60
2021/03/26 09:39:14;;;;;;;;;22.25;20.50;;;;;;;;3725001;38;21317;-60
2021/03/26 09:41:46;;;;;;;;;31.00;28.75;;;;;;;;3725135;37;21342;-59
2021/03/26 09:44:35;;;;;;;;;38.00;32.25;;;;;;;;3725078;37;21315;-58
2021/03/26 09:47:04;;;;;;;;;34.50;32.50;;;;;;;;3724526;38;21328;-59
2021/03/26 09:49:39;;;;;;;;;12.50;9.75;;;;;;;;3725044;38;21325;-60
2021/03/26 09:52:17;;;;;;;;;29.00;25.50;;;;;;;;3725048;38;21255;-59
2021/03/26 09:54:52;;;;;;;;;25.00;22.50;;;;;;;;3725166;37;21314;-61
2021/03/26 09:57:27;;;;;;;;;19.50;17.25;;;;;;;;3724921;38;21325;-60
2021/03/26 10:00:11;;;;;;;;;15.00;14.00;;;;;;;;3725054;38;21313;-60
2021/03/26 10:02:38;;;;;;;;;20.75;15.25;;;;;;;;3725263;37;21347;-58
2021/03/26 10:05:20;;;;;;;;;15.00;13.75;;;;;;;;3725118;37;21230;-59
2021/03/26 10:08:06;;;;;;;;;14.25;12.50;;;;;;;;3725126;37;21227;-61
2021/03/26 10:13:21;;;;;;;;;12.00;10.25;;;;;;;;3725020;37;21231;-63
2021/03/26 10:16:06;;;;;;;;;11.00;9.25;;;;;;;;3725163;37;21221;-61
2021/03/26 10:18:41;;;;;;;;;10.25;10.25;;;;;;;;3724875;38;21233;-60
2021/03/26 10:21:13;;;;;;;;;8.00;8.00;;;;;;;;3725276;37;21274;-60
2021/03/26 10:24:06;;;;;;;;;12.00;10.00;;;;;;;;3725012;37;21120;-61
2021/03/26 10:26:49;;;;;;;;;7.00;7.00;;;;;;;;3725048;37;21248;-60
2021/03/26 10:29:41;;;;;;;;;9.25;7.00;;;;;;;;3724932;37;21209;-62
2021/03/26 10:32:15;;;;;;;;;8.75;7.00;;;;;;;;3725243;38;21173;-62
2021/03/26 10:34:43;;;;;;;;;9.25;9.00;;;;;;;;3725208;38;21152;-60
2021/03/26 10:37:38;;;;;;;;;12.25;7.75;;;;;;;;3725151;38;21222;-61
2021/03/26 10:40:06;;;;;;;;;10.25;8.00;;;;;;;;3725106;38;21193;-62
2021/03/26 10:42:42;;;;;;;;;12.25;10.75;;;;;;;;3724818;38;21244;-60
2021/03/26 10:45:29;;;;;;;;;10.50;9.00;;;;;;;;3725038;38;21262;-62
2021/03/26 10:48:00;;;;;;;;;8.50;7.00;;;;;;;;3725003;37;21197;-62
2021/03/26 10:50:33;;;;;;;;;10.50;9.50;;;;;;;;3725081;37;21173;-61
2021/03/26 10:53:06;;;;;;;;;14.00;11.75;;;;;;;;3724911;37;21237;-62
2021/03/26 10:55:40;;;;;;;;;14.75;12.00;;;;;;;;3724861;37;21202;-62
2021/03/26 10:58:28;;;;;;;;;5.25;3.25;;;;;;;;3724907;38;21183;-61
2021/03/26 11:01:11;;;;;;;;;13.25;11.25;;;;;;;;3725047;37;21109;-62
2021/03/26 11:04:02;;;;;;;;;9.00;7.25;;;;;;;;3725042;37;21201;-60
2021/03/26 11:06:32;;;;;;;;;11.50;9.50;;;;;;;;3725173;37;21085;-61
2021/03/26 11:09:04;;;;;;;;;18.25;14.00;;;;;;;;3724713;37;21091;-60
2021/03/26 11:11:41;;;;;;;;;16.00;15.00;;;;;;;;3725064;37;21254;-60
2021/03/26 11:14:25;;;;;;;;;20.00;16.75;;;;;;;;3725009;37;21192;-63
2021/03/26 11:17:10;;;;;;;;;18.50;16.75;;;;;;;;3725342;38;21219;-62
2021/03/26 11:19:39;;;;;;;;;9.75;9.75;;;;;;;;3725156;37;21202;-60
2021/03/26 11:22:16;;;;;;;;;17.00;16.75;;;;;;;;3724975;37;21149;-61
2021/03/26 11:24:44;;;;;;;;;16.00;16.00;;;;;;;;3725195;37;21157;-63
2021/03/26 11:27:19;;;;;;;;;14.50;11.75;;;;;;;;3725188;38;21139;-62
2021/03/26 11:29:47;;;;;;;;;16.00;13.50;;;;;;;;3725228;38;21126;-61
2021/03/26 11:32:23;;;;;;;;;14.25;14.25;;;;;;;;3725045;37;21200;-63
2021/03/26 11:34:52;;;;;;;;;22.75;17.75;;;;;;;;3725057;37;21225;-59
2021/03/26 11:37:22;;;;;;;;;16.25;15.25;;;;;;;;3725015;37;21201;-61
2021/03/26 11:39:56;;;;;;;;;17.75;16.00;;;;;;;;3725146;38;21160;-62
2021/03/26 11:42:34;;;;;;;;;15.75;15.75;;;;;;;;3725317;37;21163;-62
2021/03/26 11:45:38;;;;;;;;;13.50;12.25;;;;;;;;3724618;38;21149;-60
2021/03/26 11:48:38;;;;;;;;;16.00;15.00;;;;;;;;3725156;37;21185;-60
2021/03/26 11:51:07;;;;;;;;;17.25;15.75;;;;;;;;3725120;38;21195;-62
2021/03/26 11:53:35;;;;;;;;;19.25;19.00;;;;;;;;3725019;38;21153;-63
2021/03/26 11:56:29;;;;;;;;;19.75;16.00;;;;;;;;3725050;37;21145;-61
2021/03/26 11:59:13;;;;;;;;;16.00;15.25;;;;;;;;3725029;37;21171;-61
2021/03/26 12:02:03;;;;;;;;;18.00;16.75;;;;;;;;3724956;38;21179;-62
2021/03/26 12:04:38;;;;;;;;;19.50;17.75;;;;;;;;3725065;37;21151;-61
2021/03/26 12:07:18;;;;;;;;;22.75;21.25;;;;;;;;3725133;37;21135;-64
2021/03/26 12:10:11;;;;;;;;;17.25;16.00;;;;;;;;3725185;37;21144;-62
2021/03/26 12:12:43;;;;;;;;;15.50;14.50;;;;;;;;3725103;38;21135;-61
2021/03/26 12:15:11;;;;;;;;;18.50;16.00;;;;;;;;3724943;37;21126;-60
2021/03/26 12:17:55;;;;;;;;;18.25;16.50;;;;;;;;3725057;37;21136;-60
2021/03/26 12:20:29;;;;;;;;;20.75;17.00;;;;;;;;3724911;37;21282;-62
2021/03/26 12:23:08;;;;;;;;;16.25;15.75;;;;;;;;3725200;38;21120;-61
2021/03/26 12:25:52;;;;;;;;;15.00;13.25;;;;;;;;3725137;38;21114;-61
2021/03/26 12:28:34;;;;;;;;;19.25;18.00;;;;;;;;3724831;37;21154;-61
2021/03/26 12:31:10;;;;;;;;;20.00;20.00;;;;;;;;3724810;38;21095;-61
2021/03/26 12:33:44;;;;;;;;;19.50;17.75;;;;;;;;3725033;38;21107;-62
2021/03/26 12:36:36;;;;;;;;;14.25;13.00;;;;;;;;3724757;37;21082;-62
2021/03/26 12:39:09;;;;;;;;;18.25;16.00;;;;;;;;3724766;37;21090;-61
2021/03/26 12:41:48;;;;;;;;;20.00;19.00;;;;;;;;3724819;37;21089;-62
2021/03/26 12:44:29;;;;;;;;;18.25;16.75;;;;;;;;3724788;38;21067;-61
2021/03/26 12:47:14;;;;;;;;;20.75;18.50;;;;;;;;3724151;37;21091;-61
2021/03/26 12:49:57;;;;;;;;;20.00;16.50;;;;;;;;3724796;37;21131;-60
2021/03/26 12:52:43;;;;;;;;;21.25;17.75;;;;;;;;3724826;38;21116;-61
2021/03/26 12:55:22;;;;;;;;;15.00;14.00;;;;;;;;3724758;37;21073;-60
2021/03/26 12:58:04;;;;;;;;;20.00;16.75;;;;;;;;3724749;37;21016;-62
2021/03/26 13:00:51;;;;;;;;;20.00;18.00;;;;;;;;3724643;38;21052;-61
2021/03/26 13:03:25;;;;;;;;;18.50;17.75;;;;;;;;3724948;37;21071;-61
2021/03/26 13:06:23;;;;;;;;;19.00;17.00;;;;;;;;3724610;38;21059;-61
2021/03/26 13:08:50;;;;;;;;;17.00;16.25;;;;;;;;3724372;38;21125;-62
2021/03/26 13:11:31;;;;;;;;;16.50;14.75;;;;;;;;3724378;38;21000;-63
2021/03/26 13:14:12;;;;;;;;;16.25;15.50;;;;;;;;3724503;37;21004;-62
2021/03/26 13:16:50;;;;;;;;;21.75;19.50;;;;;;;;3724129;38;21028;-61
2021/03/26 13:19:26;;;;;;;;;26.25;22.75;;;;;;;;3724324;38;21089;-62
2021/03/26 13:22:11;;;;;;;;;17.75;16.25;;;;;;;;3723854;37;21038;-61
2021/03/26 13:24:42;;;;;;;;;28.50;23.00;;;;;;;;3724475;38;21048;-59
2021/03/26 13:27:39;;;;;;;;;25.25;23.00;;;;;;;;3724743;37;21036;-60
2021/03/26 13:30:31;;;;;;;;;27.75;25.25;;;;;;;;3724901;37;21286;-61
2021/03/26 13:33:16;;;;;;;;;24.75;23.00;;;;;;;;3724756;38;21029;-62
2021/03/26 13:36:01;;;;;;;;;25.75;23.50;;;;;;;;3724921;37;21040;-60
2021/03/26 13:38:49;;;;;;;;;21.50;20.25;;;;;;;;3724885;37;21028;-65
2021/03/26 13:41:23;;;;;;;;;22.00;18.00;;;;;;;;3725168;37;21010;-61
2021/03/26 13:44:03;;;;;;;;;22.50;21.00;;;;;;;;3725006;38;21020;-64
2021/03/26 13:46:30;;;;;;;;;23.75;21.00;;;;;;;;3724929;38;21006;-60
2021/03/26 13:49:21;;;;;;;;;22.50;19.50;;;;;;;;3724972;38;20973;-59
2021/03/26 13:51:49;;;;;;;;;19.75;17.50;;;;;;;;3725105;38;21038;-60
2021/03/26 13:54:46;;;;;;;;;26.50;24.50;;;;;;;;3725094;38;21002;-61
2021/03/26 13:57:24;;;;;;;;;25.75;21.50;;;;;;;;3725052;38;20993;-61
2021/03/26 14:00:02;;;;;;;;;24.75;23.75;;;;;;;;3724858;37;20980;-60
2021/03/26 14:02:36;;;;;;;;;30.50;26.75;;;;;;;;3724914;37;20972;-61
2021/03/26 14:05:08;;;;;;;;;22.50;21.00;;;;;;;;3724850;37;20994;-63
2021/03/26 14:07:36;;;;;;;;;28.00;24.50;;;;;;;;3724825;37;20972;-63
2021/03/26 14:10:12;;;;;;;;;28.50;24.75;;;;;;;;3724795;37;20983;-62
2021/03/26 14:12:41;;;;;;;;;28.75;24.25;;;;;;;;3724865;37;20949;-64
2021/03/26 14:15:16;;;;;;;;;22.00;19.00;;;;;;;;3724870;37;20953;-62
2021/03/26 14:18:12;;;;;;;;;29.00;26.00;;;;;;;;3725137;37;20944;-64
2021/03/26 14:20:47;;;;;;;;;28.50;25.25;;;;;;;;3724967;38;20984;-64
2021/03/26 14:23:16;;;;;;;;;33.50;28.00;;;;;;;;3725040;38;20953;-66
2021/03/26 14:26:08;;;;;;;;;30.75;27.50;;;;;;;;3724990;38;20931;-61
2021/03/26 14:28:39;;;;;;;;;30.50;27.25;;;;;;;;3724810;38;20947;-61
2021/03/26 14:31:14;;;;;;;;;25.25;22.25;;;;;;;;3724878;37;20961;-61
2021/03/26 14:33:56;;;;;;;;;28.00;26.50;;;;;;;;3724936;38;20904;-61
2021/03/26 14:36:27;;;;;;;;;26.25;21.50;;;;;;;;3724848;37;20917;-61
2021/03/26 14:38:59;;;;;;;;;32.25;29.25;;;;;;;;3724819;38;20971;-61
2021/03/26 14:41:35;;;;;;;;;40.00;34.50;;;;;;;;3724900;38;20909;-61
2021/03/26 14:44:13;;;;;;;;;34.50;29.00;;;;;;;;3724775;38;20915;-62
2021/03/26 14:47:02;;;;;;;;;32.00;28.00;;;;;;;;3724839;38;20932;-62
2021/03/26 14:49:40;;;;;;;;;31.25;29.50;;;;;;;;3724893;37;20899;-60
2021/03/26 14:52:24;;;;;;;;;30.00;27.75;;;;;;;;3724783;37;20813;-61
2021/03/26 14:55:21;;;;;;;;;27.75;26.00;;;;;;;;3724852;38;20879;-63
2021/03/26 14:58:05;;;;;;;;;33.75;29.50;;;;;;;;3724034;37;20881;-62
2021/03/26 15:00:49;;;;;;;;;33.75;29.00;;;;;;;;3724762;38;20929;-62
2021/03/26 15:03:34;;;;;;;;;32.25;31.25;;;;;;;;3724939;38;20824;-60
2021/03/26 15:06:13;;;;;;;;;28.25;25.00;;;;;;;;3724835;37;21218;-61
2021/03/26 15:08:45;;;;;;;;;32.50;30.25;;;;;;;;3724661;37;20887;-61
2021/03/26 15:11:19;;;;;;;;;26.00;25.00;;;;;;;;3724800;37;20904;-61
2021/03/26 15:13:50;;;;;;;;;31.75;27.50;;;;;;;;3724549;38;20967;-62
2021/03/26 15:16:20;;;;;;;;;33.25;29.25;;;;;;;;3724822;38;20902;-62
2021/03/26 15:19:09;;;;;;;;;33.25;29.25;;;;;;;;3724743;38;20873;-63
2021/03/26 15:21:53;;;;;;;;;34.00;30.50;;;;;;;;3724989;37;20910;-60